LSGG/GVA METAR and TAF weather

Enter ICAO airport designator
Station Type Date Time Source
LSGG METAR 2019/08/18 09:20 UTC NOAA

LSGG 180920Z 23012KT 200V270 CAVOK 27/13 Q1012 NOSIG


Station Type Date Time Source
LSGG Decoded METAR 2019/08/18 09:20 UTC NOAA

Station name not available
Aug 18, 2019 - 05:20 AM EDT / 2019.08.18 0920 UTC
Wind: from the SW (230 degrees) at 14 MPH (12 KT) (direction variable):0
Visibility: greater than 7 mile(s):0
Temperature: 80 F (27 C)
Dew Point: 55 F (13 C)
Relative Humidity: 41%
Pressure (altimeter): 29.88 in. Hg (1012 hPa)
ob: LSGG 180920Z 23012KT 200V270 CAVOK 27/13 Q1012 NOSIG
cycle: 9

Station Type Date Time Source
LSGG TAF 2019/08/18 09:36 UTC NOAA

TAF LSGG 180825Z 1809/1915 24015KT CAVOK TX32/1815Z TN18/1904Z TX23/1915Z
BECMG 1813/1815 9999 FEW050
TEMPO 1818/1824 28020G30KT TSRA SCT050CB
TEMPO 1900/1906 RA BKN050
BECMG 1905/1907 24005KT

Example: see airport list